Time;durP1;ratioP1;P1;durP2;ratioP2;P2;SDS_P1;SDS_P2;PMS_P1;PMS_P2;Temp;Humidity;BMP_temperature;BMP_pressure;BME280_temperature;BME280_humidity;BME280_pressure;Samples;Min_cycle;Max_cycle;Signal;HPM_P1;HPM_P2
2022/04/03 00:00:37;;;;;;;3.17;1.27;;;;;;;;;;5128371;27;20525;-71
2022/04/03 00:03:04;;;;;;;3.47;1.35;;;;;;;;;;5086868;27;20206;-71
2022/04/03 00:05:33;;;;;;;3.63;1.38;;;;;;;;;;5110721;27;20107;-70
2022/04/03 00:07:59;;;;;;;3.70;1.40;;;;;;;;;;5102880;27;20043;-71
2022/04/03 00:10:25;;;;;;;3.80;1.30;;;;;;;;;;5109441;27;20058;-71
2022/04/03 00:12:51;;;;;;;4.53;1.40;;;;;;;;;;5103983;27;20043;-71
2022/04/03 00:15:17;;;;;;;3.55;1.30;;;;;;;;;;5111729;27;20471;-70
2022/04/03 00:17:45;;;;;;;4.20;1.30;;;;;;;;;;5123933;27;20582;-71
2022/04/03 00:20:11;;;;;;;4.07;1.48;;;;;;;;;;5130776;27;20401;-71
2022/04/03 00:22:37;;;;;;;2.58;1.10;;;;;;;;;;5127779;27;20474;-70
2022/04/03 00:25:04;;;;;;;3.03;1.10;;;;;;;;;;5141819;27;20150;-71
2022/04/03 00:27:30;;;;;;;3.80;1.60;;;;;;;;;;5144899;27;20561;-70
2022/04/03 00:29:56;;;;;;;4.07;1.35;;;;;;;;;;5126272;27;20041;-70
2022/04/03 00:32:22;;;;;;;3.83;1.30;;;;;;;;;;5127462;27;20042;-70
2022/04/03 00:34:49;;;;;;;3.55;1.30;;;;;;;;;;5125714;27;20038;-70
2022/04/03 00:37:15;;;;;;;4.93;1.30;;;;;;;;;;5144015;27;20264;-70
2022/04/03 00:39:41;;;;;;;3.70;1.20;;;;;;;;;;5132715;27;20440;-70
2022/04/03 00:42:08;;;;;;;2.92;1.23;;;;;;;;;;5092008;27;20043;-71
2022/04/03 00:44:35;;;;;;;3.85;1.40;;;;;;;;;;5089711;27;20348;-71
2022/04/03 00:47:01;;;;;;;3.92;1.35;;;;;;;;;;5144487;27;20572;-70
2022/04/03 00:49:27;;;;;;;3.33;1.25;;;;;;;;;;5142038;27;20034;-70
2022/04/03 00:51:53;;;;;;;3.95;1.30;;;;;;;;;;5145226;27;20697;-70
2022/04/03 00:54:19;;;;;;;3.05;1.23;;;;;;;;;;5125334;27;20066;-70
2022/04/03 00:56:45;;;;;;;3.47;1.38;;;;;;;;;;5101186;27;20122;-70
2022/04/03 00:59:12;;;;;;;4.40;1.27;;;;;;;;;;5102559;27;20047;-70
2022/04/03 01:01:45;;;;;;;3.60;1.50;;;;;;;;;;5103256;27;20452;-70
2022/04/03 01:04:12;;;;;;;3.95;1.50;;;;;;;;;;5085934;27;20075;-70
2022/04/03 01:06:38;;;;;;;3.45;1.33;;;;;;;;;;5124843;27;20042;-70
2022/04/03 01:09:04;;;;;;;3.45;1.27;;;;;;;;;;5143906;27;20361;-70
2022/04/03 01:11:31;;;;;;;3.42;1.20;;;;;;;;;;5141531;27;20567;-70
2022/04/03 01:13:57;;;;;;;3.60;1.20;;;;;;;;;;5144225;27;20468;-70
2022/04/03 01:16:24;;;;;;;4.18;1.50;;;;;;;;;;5141522;27;20131;-70
2022/04/03 01:18:50;;;;;;;3.17;1.13;;;;;;;;;;5126597;27;20042;-70
2022/04/03 01:21:16;;;;;;;3.58;1.30;;;;;;;;;;5125545;27;20053;-71
2022/04/03 01:23:43;;;;;;;3.65;1.40;;;;;;;;;;5123192;27;20115;-70
2022/04/03 01:26:09;;;;;;;4.32;1.30;;;;;;;;;;5137252;27;20043;-70
2022/04/03 01:28:35;;;;;;;3.42;1.20;;;;;;;;;;5143711;27;20066;-71
2022/04/03 01:31:01;;;;;;;2.60;1.13;;;;;;;;;;5142156;27;20117;-71
2022/04/03 01:33:27;;;;;;;3.50;1.35;;;;;;;;;;5143369;27;20046;-71
2022/04/03 01:35:53;;;;;;;3.00;1.13;;;;;;;;;;5142199;27;20198;-71
2022/04/03 01:38:19;;;;;;;3.42;1.30;;;;;;;;;;5143236;27;20054;-71
2022/04/03 01:40:45;;;;;;;3.60;1.45;;;;;;;;;;5139968;27;20281;-71
2022/04/03 01:43:11;;;;;;;4.45;1.50;;;;;;;;;;5143434;27;20787;-71
2022/04/03 01:45:38;;;;;;;3.75;1.40;;;;;;;;;;5130449;27;20130;-71
2022/04/03 01:48:04;;;;;;;3.78;1.27;;;;;;;;;;5105877;27;20037;-71
2022/04/03 01:50:31;;;;;;;3.95;1.40;;;;;;;;;;5122054;27;20236;-71
2022/04/03 01:52:57;;;;;;;3.90;1.30;;;;;;;;;;5082237;27;20049;-71
2022/04/03 01:55:24;;;;;;;3.33;1.30;;;;;;;;;;5088930;27;20039;-71
2022/04/03 01:57:50;;;;;;;3.78;1.30;;;;;;;;;;5080962;28;20047;-71
2022/04/03 02:00:16;;;;;;;3.60;1.25;;;;;;;;;;5081310;27;20049;-71
2022/04/03 02:02:42;;;;;;;3.67;1.20;;;;;;;;;;5122524;27;20326;-71
2022/04/03 02:05:08;;;;;;;3.15;1.10;;;;;;;;;;5120995;27;20070;-71
2022/04/03 02:07:34;;;;;;;2.72;1.10;;;;;;;;;;5106008;27;20296;-71
2022/04/03 02:10:01;;;;;;;3.28;1.13;;;;;;;;;;5121504;27;20095;-71
2022/04/03 02:12:27;;;;;;;3.22;1.15;;;;;;;;;;5105237;27;20138;-71
2022/04/03 02:14:53;;;;;;;3.33;1.13;;;;;;;;;;5121014;27;20070;-71
2022/04/03 02:17:19;;;;;;;3.70;1.40;;;;;;;;;;5104156;28;20092;-71
2022/04/03 02:19:45;;;;;;;3.13;1.20;;;;;;;;;;5104681;27;20046;-71
2022/04/03 02:22:11;;;;;;;3.00;1.10;;;;;;;;;;5122213;27;20095;-70
2022/04/03 02:24:37;;;;;;;4.03;1.30;;;;;;;;;;5117546;28;20100;-71
2022/04/03 02:27:05;;;;;;;3.63;1.17;;;;;;;;;;5118886;28;20043;-71
2022/04/03 02:29:31;;;;;;;3.63;1.30;;;;;;;;;;5114937;27;20153;-70
2022/04/03 02:31:58;;;;;;;3.42;1.23;;;;;;;;;;5081783;28;20097;-71
2022/04/03 02:34:24;;;;;;;3.67;1.30;;;;;;;;;;5082988;27;20044;-71
2022/04/03 02:36:51;;;;;;;4.10;1.50;;;;;;;;;;5121824;27;20039;-71
2022/04/03 02:39:17;;;;;;;5.00;1.50;;;;;;;;;;5121103;27;20035;-71
2022/04/03 02:41:43;;;;;;;3.20;1.08;;;;;;;;;;5104235;27;20039;-71
2022/04/03 02:44:09;;;;;;;4.97;1.35;;;;;;;;;;5122351;27;20046;-71
2022/04/03 02:46:36;;;;;;;2.70;1.08;;;;;;;;;;5119897;27;20138;-71
2022/04/03 02:49:02;;;;;;;3.42;1.38;;;;;;;;;;5105453;27;20038;-71
2022/04/03 02:51:28;;;;;;;3.60;1.40;;;;;;;;;;5121099;27;20250;-71
2022/04/03 02:53:54;;;;;;;4.18;1.38;;;;;;;;;;5105512;27;20039;-71
2022/04/03 02:56:20;;;;;;;3.53;1.30;;;;;;;;;;5101944;27;20491;-71
2022/04/03 02:58:46;;;;;;;3.58;1.40;;;;;;;;;;5122219;27;20563;-71
2022/04/03 03:01:12;;;;;;;3.92;1.38;;;;;;;;;;5084433;28;20360;-71
2022/04/03 03:03:38;;;;;;;3.78;1.15;;;;;;;;;;5064121;28;20189;-71
2022/04/03 03:06:04;;;;;;;3.42;1.17;;;;;;;;;;5111532;27;20115;-71
2022/04/03 03:08:30;;;;;;;4.47;1.35;;;;;;;;;;5104884;27;20284;-71
2022/04/03 03:10:56;;;;;;;2.92;1.20;;;;;;;;;;5106514;27;20043;-70
2022/04/03 03:13:22;;;;;;;4.07;1.50;;;;;;;;;;5100933;28;20039;-71
2022/04/03 03:15:48;;;;;;;4.82;1.50;;;;;;;;;;5113065;27;20116;-71
2022/04/03 03:18:14;;;;;;;3.28;1.25;;;;;;;;;;5104820;27;20039;-71
2022/04/03 03:20:40;;;;;;;3.97;1.50;;;;;;;;;;5108549;27;20040;-71
2022/04/03 03:23:06;;;;;;;4.15;1.27;;;;;;;;;;5101105;28;20126;-71
2022/04/03 03:25:32;;;;;;;3.13;1.30;;;;;;;;;;5100220;27;20131;-70
2022/04/03 03:27:58;;;;;;;3.60;1.27;;;;;;;;;;5102623;28;20082;-70
2022/04/03 03:30:24;;;;;;;3.60;1.20;;;;;;;;;;5108203;27;20070;-71
2022/04/03 03:32:50;;;;;;;3.78;1.30;;;;;;;;;;5121435;27;20481;-71
2022/04/03 03:35:16;;;;;;;2.80;1.17;;;;;;;;;;5119956;27;20090;-71
2022/04/03 03:37:42;;;;;;;3.13;1.10;;;;;;;;;;5120842;27;20085;-71
2022/04/03 03:40:11;;;;;;;3.20;1.10;;;;;;;;;;5109354;27;20299;-71
2022/04/03 03:42:37;;;;;;;4.10;1.30;;;;;;;;;;5062712;28;20520;-71
2022/04/03 03:45:03;;;;;;;4.00;1.27;;;;;;;;;;5079969;28;20543;-71
2022/04/03 03:47:30;;;;;;;4.50;1.30;;;;;;;;;;5080211;28;20126;-71
2022/04/03 03:49:56;;;;;;;3.33;1.10;;;;;;;;;;5079752;28;20429;-71
2022/04/03 03:52:22;;;;;;;4.28;1.20;;;;;;;;;;5062751;28;20102;-71
2022/04/03 03:54:48;;;;;;;3.03;1.10;;;;;;;;;;5087606;27;20352;-71
2022/04/03 03:57:14;;;;;;;3.85;1.33;;;;;;;;;;5120667;27;20113;-71
2022/04/03 03:59:40;;;;;;;2.80;1.00;;;;;;;;;;5116190;27;20438;-71
2022/04/03 04:02:06;;;;;;;3.95;1.13;;;;;;;;;;5100441;28;20047;-71
2022/04/03 04:04:32;;;;;;;3.47;1.13;;;;;;;;;;5100572;27;20103;-71
2022/04/03 04:06:58;;;;;;;3.40;1.10;;;;;;;;;;5103636;27;20127;-71
2022/04/03 04:09:24;;;;;;;3.47;1.13;;;;;;;;;;5121020;27;20100;-71
2022/04/03 04:11:50;;;;;;;3.25;1.10;;;;;;;;;;5120036;27;20115;-71
2022/04/03 04:14:16;;;;;;;2.28;0.90;;;;;;;;;;5120728;27;20059;-71
2022/04/03 04:16:42;;;;;;;2.75;1.08;;;;;;;;;;5120422;27;20051;-71
2022/04/03 04:19:09;;;;;;;3.03;1.10;;;;;;;;;;5120901;27;20503;-71
2022/04/03 04:21:35;;;;;;;3.97;1.20;;;;;;;;;;5099656;27;20136;-71
2022/04/03 04:24:01;;;;;;;2.85;1.10;;;;;;;;;;5099772;28;20062;-70
2022/04/03 04:26:27;;;;;;;3.03;1.30;;;;;;;;;;5116353;27;20039;-72
2022/04/03 04:28:53;;;;;;;4.07;1.00;;;;;;;;;;5119752;27;20043;-71
2022/04/03 04:31:19;;;;;;;2.55;0.90;;;;;;;;;;5067046;28;20039;-71
2022/04/03 04:33:45;;;;;;;3.08;1.30;;;;;;;;;;5083655;28;20373;-71
2022/04/03 04:36:11;;;;;;;2.38;0.90;;;;;;;;;;5113641;27;20054;-71
2022/04/03 04:38:37;;;;;;;3.30;1.00;;;;;;;;;;5120091;27;20043;-71
2022/04/03 04:41:04;;;;;;;3.15;1.13;;;;;;;;;;5098871;27;20040;-71
2022/04/03 04:43:31;;;;;;;2.95;1.10;;;;;;;;;;5079559;28;20047;-71
2022/04/03 04:45:56;;;;;;;3.03;1.10;;;;;;;;;;5106780;27;20460;-71
2022/04/03 04:48:23;;;;;;;2.88;0.93;;;;;;;;;;5119561;27;20107;-71
2022/04/03 04:50:49;;;;;;;2.58;1.10;;;;;;;;;;5118589;27;20039;-71
2022/04/03 04:53:15;;;;;;;3.40;1.40;;;;;;;;;;5119520;27;20139;-71
2022/04/03 04:55:41;;;;;;;4.13;1.23;;;;;;;;;;5111308;27;20055;-71
2022/04/03 04:58:07;;;;;;;3.33;1.27;;;;;;;;;;5099541;28;20506;-71
2022/04/03 05:00:33;;;;;;;3.35;1.10;;;;;;;;;;5097606;28;20035;-71
2022/04/03 05:02:59;;;;;;;2.15;1.00;;;;;;;;;;5099044;28;20510;-71
2022/04/03 05:05:27;;;;;;;3.05;1.10;;;;;;;;;;5089532;28;20127;-71
2022/04/03 05:07:57;;;;;;;2.60;1.00;;;;;;;;;;5078918;28;20066;-71
2022/04/03 05:10:24;;;;;;;3.25;1.00;;;;;;;;;;5087329;28;20401;-71
2022/04/03 05:12:50;;;;;;;2.55;1.00;;;;;;;;;;5082783;28;20475;-71
2022/04/03 05:15:17;;;;;;;2.63;0.98;;;;;;;;;;5089642;27;20115;-70
2022/04/03 05:17:44;;;;;;;2.63;1.10;;;;;;;;;;5119848;27;20043;-71
2022/04/03 05:20:11;;;;;;;3.05;0.98;;;;;;;;;;5100972;27;20043;-71
2022/04/03 05:22:38;;;;;;;2.80;1.00;;;;;;;;;;5120813;27;20124;-71
2022/04/03 05:25:04;;;;;;;2.20;0.90;;;;;;;;;;5110585;27;20048;-71
2022/04/03 05:27:31;;;;;;;2.45;1.00;;;;;;;;;;5082265;28;20114;-71
2022/04/03 05:29:57;;;;;;;2.75;1.35;;;;;;;;;;5103497;28;20371;-71
2022/04/03 05:32:26;;;;;;;2.83;1.05;;;;;;;;;;5119411;28;20043;-71
2022/04/03 05:34:53;;;;;;;3.25;1.08;;;;;;;;;;5100972;28;20213;-71
2022/04/03 05:37:19;;;;;;;2.63;1.10;;;;;;;;;;5119835;28;20042;-71
2022/04/03 05:39:45;;;;;;;4.35;1.10;;;;;;;;;;5110880;28;20055;-71
2022/04/03 05:42:11;;;;;;;2.85;1.10;;;;;;;;;;5087287;28;20209;-71
2022/04/03 05:44:38;;;;;;;2.50;1.05;;;;;;;;;;5100070;28;20036;-71
2022/04/03 05:47:04;;;;;;;2.33;0.80;;;;;;;;;;5102368;28;20511;-71
2022/04/03 05:49:31;;;;;;;2.08;0.90;;;;;;;;;;5114415;28;20107;-71
2022/04/03 05:51:57;;;;;;;3.38;1.00;;;;;;;;;;5078330;28;20550;-71
2022/04/03 05:54:22;;;;;;;2.03;1.00;;;;;;;;;;5078225;28;20044;-71
2022/04/03 05:56:49;;;;;;;3.33;1.15;;;;;;;;;;5077296;28;20040;-71
2022/04/03 05:59:15;;;;;;;2.67;1.17;;;;;;;;;;5077990;28;20139;-71
2022/04/03 06:01:41;;;;;;;2.10;0.90;;;;;;;;;;5135182;27;20039;-71
2022/04/03 06:04:07;;;;;;;2.53;0.95;;;;;;;;;;5119029;27;20289;-71
2022/04/03 06:06:34;;;;;;;3.17;1.20;;;;;;;;;;5102344;28;20164;-71
2022/04/03 06:09:00;;;;;;;2.67;1.00;;;;;;;;;;5102665;28;20046;-71
2022/04/03 06:11:26;;;;;;;3.47;1.00;;;;;;;;;;5101893;27;20180;-71
2022/04/03 06:13:52;;;;;;;2.45;0.90;;;;;;;;;;5124616;27;20615;-71
2022/04/03 06:16:17;;;;;;;3.10;1.00;;;;;;;;;;5104676;27;20043;-71
2022/04/03 06:18:44;;;;;;;2.95;1.10;;;;;;;;;;5123259;27;20596;-71
2022/04/03 06:21:10;;;;;;;3.05;1.10;;;;;;;;;;5121027;27;20078;-71
2022/04/03 06:23:36;;;;;;;2.13;0.80;;;;;;;;;;5124157;27;20119;-71
2022/04/03 06:26:02;;;;;;;3.42;1.08;;;;;;;;;;5110009;27;20119;-71
2022/04/03 06:28:29;;;;;;;3.17;1.23;;;;;;;;;;5105409;27;20031;-71
2022/04/03 06:30:56;;;;;;;2.53;1.00;;;;;;;;;;5100638;27;20061;-70
2022/04/03 06:33:22;;;;;;;2.85;1.00;;;;;;;;;;5126109;27;20141;-71
2022/04/03 06:35:49;;;;;;;3.25;1.20;;;;;;;;;;5124159;27;20158;-71
2022/04/03 06:38:15;;;;;;;2.53;0.88;;;;;;;;;;5127370;27;20400;-71
2022/04/03 06:40:44;;;;;;;2.22;1.05;;;;;;;;;;5124198;27;20054;-71
2022/04/03 06:43:09;;;;;;;2.95;1.10;;;;;;;;;;5125932;27;20114;-71
2022/04/03 06:45:36;;;;;;;2.78;1.02;;;;;;;;;;5110102;27;20075;-71
2022/04/03 06:48:02;;;;;;;3.05;0.98;;;;;;;;;;5084948;28;20078;-71
2022/04/03 06:50:28;;;;;;;2.45;1.00;;;;;;;;;;5085353;28;20038;-71
2022/04/03 06:52:54;;;;;;;3.67;1.17;;;;;;;;;;5084818;28;20500;-71
2022/04/03 06:55:20;;;;;;;3.95;1.08;;;;;;;;;;5083491;28;20337;-71
2022/04/03 06:57:46;;;;;;;2.85;1.08;;;;;;;;;;5085100;28;20479;-71
2022/04/03 07:00:13;;;;;;;2.03;0.82;;;;;;;;;;5089569;27;20047;-71
2022/04/03 07:02:39;;;;;;;2.30;0.93;;;;;;;;;;5084873;28;20049;-71
2022/04/03 07:05:05;;;;;;;3.67;1.10;;;;;;;;;;5088563;28;20133;-71
2022/04/03 07:07:32;;;;;;;2.78;1.05;;;;;;;;;;5084591;28;20039;-71
2022/04/03 07:09:58;;;;;;;2.05;0.90;;;;;;;;;;5095642;27;20046;-71
2022/04/03 07:12:24;;;;;;;2.63;1.30;;;;;;;;;;5125927;27;20078;-71
2022/04/03 07:14:50;;;;;;;2.10;0.90;;;;;;;;;;5103141;27;20081;-71
2022/04/03 07:17:16;;;;;;;3.00;0.95;;;;;;;;;;5088097;27;20046;-71
2022/04/03 07:19:43;;;;;;;3.67;1.05;;;;;;;;;;5101462;27;20147;-71
2022/04/03 07:22:09;;;;;;;2.38;0.90;;;;;;;;;;5067603;28;20146;-71
2022/04/03 07:24:35;;;;;;;3.40;1.05;;;;;;;;;;5084862;27;20052;-71
2022/04/03 07:27:01;;;;;;;3.47;1.08;;;;;;;;;;5098330;27;20112;-71
2022/04/03 07:29:27;;;;;;;2.10;0.80;;;;;;;;;;5090846;28;20615;-71
2022/04/03 07:31:53;;;;;;;3.40;0.90;;;;;;;;;;5090200;28;20504;-71
2022/04/03 07:34:19;;;;;;;2.33;1.00;;;;;;;;;;5087826;28;20051;-71
2022/04/03 07:36:46;;;;;;;2.33;0.70;;;;;;;;;;5080914;28;20085;-71
2022/04/03 07:39:12;;;;;;;2.53;0.98;;;;;;;;;;5082764;28;20059;-71
2022/04/03 07:41:38;;;;;;;2.88;1.00;;;;;;;;;;5091907;27;20051;-70
2022/04/03 07:44:08;;;;;;;2.50;0.90;;;;;;;;;;5073329;28;20271;-71
2022/04/03 07:46:35;;;;;;;1.58;0.75;;;;;;;;;;5078540;28;20036;-70
2022/04/03 07:49:01;;;;;;;3.20;0.90;;;;;;;;;;5071611;28;20040;-71
2022/04/03 07:51:27;;;;;;;2.70;0.98;;;;;;;;;;5079114;28;20484;-70
2022/04/03 07:53:54;;;;;;;2.38;0.85;;;;;;;;;;5068066;28;20043;-71
2022/04/03 07:56:20;;;;;;;2.15;0.80;;;;;;;;;;5094004;27;20134;-71
2022/04/03 07:58:46;;;;;;;3.38;1.00;;;;;;;;;;5097567;27;20238;-71
2022/04/03 08:01:12;;;;;;;2.63;0.90;;;;;;;;;;5097693;27;20067;-70
2022/04/03 08:03:38;;;;;;;3.40;0.90;;;;;;;;;;5096901;27;20165;-71
2022/04/03 08:06:07;;;;;;;2.05;0.80;;;;;;;;;;5101054;27;20425;-71
2022/04/03 08:08:33;;;;;;;2.25;0.85;;;;;;;;;;5103164;27;20100;-71
2022/04/03 08:10:59;;;;;;;2.95;0.75;;;;;;;;;;5086830;28;20032;-71
2022/04/03 08:13:26;;;;;;;3.33;0.90;;;;;;;;;;5082156;28;20079;-71
2022/04/03 08:15:52;;;;;;;1.85;0.73;;;;;;;;;;5091449;27;20113;-71
2022/04/03 08:18:19;;;;;;;2.78;0.82;;;;;;;;;;5105652;27;20172;-71
2022/04/03 08:20:45;;;;;;;2.28;0.77;;;;;;;;;;5121274;27;20050;-70
2022/04/03 08:23:11;;;;;;;5.40;1.00;;;;;;;;;;5101848;27;20043;-71
2022/04/03 08:25:39;;;;;;;1.95;0.82;;;;;;;;;;5063105;28;20062;-72
2022/04/03 08:28:07;;;;;;;2.20;0.77;;;;;;;;;;5087556;28;20073;-72
2022/04/03 08:30:34;;;;;;;2.78;0.70;;;;;;;;;;5112532;27;20484;-71
2022/04/03 08:33:01;;;;;;;4.18;0.95;;;;;;;;;;5104293;27;20444;-72
2022/04/03 08:35:28;;;;;;;5.10;0.90;;;;;;;;;;5112594;27;20129;-73
2022/04/03 08:37:55;;;;;;;2.05;0.90;;;;;;;;;;5084528;28;20469;-71
2022/04/03 08:40:23;;;;;;;3.78;0.70;;;;;;;;;;5089748;28;20115;-72
2022/04/03 08:42:53;;;;;;;4.45;0.70;;;;;;;;;;5083952;28;20119;-71
2022/04/03 08:45:19;;;;;;;3.88;0.90;;;;;;;;;;5091063;28;20126;-71
2022/04/03 08:47:50;;;;;;;2.58;0.88;;;;;;;;;;5083652;28;20044;-72
2022/04/03 08:50:17;;;;;;;5.90;1.10;;;;;;;;;;5084200;28;20036;-71
2022/04/03 08:52:47;;;;;;;3.17;0.77;;;;;;;;;;5066928;28;20169;-71
2022/04/03 08:55:14;;;;;;;2.30;0.70;;;;;;;;;;5067254;28;20044;-71
2022/04/03 08:57:40;;;;;;;5.15;1.00;;;;;;;;;;5084794;28;20092;-71
2022/04/03 09:00:06;;;;;;;1.23;0.55;;;;;;;;;;5078027;27;20039;-72
2022/04/03 09:02:33;;;;;;;3.78;0.93;;;;;;;;;;5095876;27;20035;-71
2022/04/03 09:04:59;;;;;;;3.47;0.82;;;;;;;;;;5103792;27;20058;-71
2022/04/03 09:07:25;;;;;;;2.80;0.65;;;;;;;;;;5119870;27;20512;-72
2022/04/03 09:09:59;;;;;;;4.35;1.08;;;;;;;;;;5108910;27;20039;-71
2022/04/03 09:12:26;;;;;;;16.50;1.60;;;;;;;;;;5097656;28;20115;-71
2022/04/03 09:14:56;;;;;;;7.32;1.63;;;;;;;;;;5087651;27;20039;-71
2022/04/03 09:17:32;;;;;;;6.07;1.15;;;;;;;;;;5084391;27;20048;-71
2022/04/03 09:20:05;;;;;;;7.65;1.27;;;;;;;;;;5094723;28;20323;-71
2022/04/03 09:22:32;;;;;;;6.35;1.15;;;;;;;;;;5089892;28;20047;-71
2022/04/03 09:24:58;;;;;;;5.22;1.10;;;;;;;;;;5073514;28;20062;-71
2022/04/03 09:27:24;;;;;;;3.72;0.85;;;;;;;;;;5091073;28;20040;-71
2022/04/03 09:30:20;;;;;;;2.95;0.70;;;;;;;;;;5084639;28;20046;-71
2022/04/03 09:32:55;;;;;;;6.05;0.80;;;;;;;;;;5082162;28;20285;-71
2022/04/03 09:35:26;;;;;;;4.10;0.80;;;;;;;;;;5107320;28;20691;-71
2022/04/03 09:38:04;;;;;;;7.43;1.10;;;;;;;;;;5102689;28;20206;-71
2022/04/03 09:40:31;;;;;;;4.20;1.30;;;;;;;;;;5102297;27;20043;-71
2022/04/03 09:43:12;;;;;;;5.28;1.25;;;;;;;;;;5106650;27;20095;-69
2022/04/03 09:45:58;;;;;;;4.13;1.00;;;;;;;;;;5111556;27;20432;-69
2022/04/03 09:48:24;;;;;;;3.72;0.90;;;;;;;;;;5084848;28;20515;-69
2022/04/03 09:51:02;;;;;;;2.15;0.77;;;;;;;;;;5085488;27;20527;-71
2022/04/03 09:53:28;;;;;;;3.92;0.77;;;;;;;;;;5076225;28;20047;-70
2022/04/03 09:55:55;;;;;;;4.53;1.00;;;;;;;;;;5095046;27;20221;-70
2022/04/03 09:58:22;;;;;;;3.30;1.00;;;;;;;;;;5100678;28;20051;-70
2022/04/03 10:00:48;;;;;;;3.95;0.77;;;;;;;;;;5102576;27;20362;-71
2022/04/03 10:03:15;;;;;;;4.22;0.82;;;;;;;;;;5099909;28;20040;-71
2022/04/03 10:05:41;;;;;;;3.03;0.80;;;;;;;;;;5078643;28;20032;-71
2022/04/03 10:08:07;;;;;;;6.85;1.25;;;;;;;;;;5085773;28;20067;-70
2022/04/03 10:10:34;;;;;;;2.83;0.70;;;;;;;;;;5079784;28;20031;-70
2022/04/03 10:13:01;;;;;;;4.13;0.85;;;;;;;;;;5102633;28;20491;-70
2022/04/03 10:15:28;;;;;;;4.45;1.10;;;;;;;;;;5110273;27;20043;-70
2022/04/03 10:17:54;;;;;;;1.90;0.63;;;;;;;;;;5122912;27;20054;-70
2022/04/03 10:20:22;;;;;;;3.20;1.00;;;;;;;;;;5120567;27;20233;-70
2022/04/03 10:22:51;;;;;;;3.17;0.70;;;;;;;;;;5122553;27;20532;-70
2022/04/03 10:25:24;;;;;;;5.40;1.05;;;;;;;;;;5104038;27;20059;-70
2022/04/03 10:27:51;;;;;;;2.65;0.75;;;;;;;;;;5123150;27;20518;-70
2022/04/03 10:30:17;;;;;;;4.13;0.98;;;;;;;;;;5121272;27;20035;-70
2022/04/03 10:32:56;;;;;;;4.75;1.05;;;;;;;;;;5122455;27;20049;-70
2022/04/03 10:35:22;;;;;;;3.90;1.05;;;;;;;;;;5103833;27;20156;-70
2022/04/03 10:37:58;;;;;;;4.97;1.17;;;;;;;;;;5082159;28;20477;-70
2022/04/03 10:40:29;;;;;;;4.00;0.95;;;;;;;;;;5099052;27;20115;-70
2022/04/03 10:43:01;;;;;;;3.38;0.90;;;;;;;;;;5105712;27;20036;-70
2022/04/03 10:45:27;;;;;;;5.88;1.30;;;;;;;;;;5111467;27;20047;-71
2022/04/03 10:48:13;;;;;;;4.13;0.80;;;;;;;;;;5085386;28;20502;-70
2022/04/03 10:50:58;;;;;;;4.32;1.10;;;;;;;;;;5089216;28;20067;-70
2022/04/03 10:53:25;;;;;;;4.10;0.90;;;;;;;;;;5081387;28;20040;-70
2022/04/03 10:55:57;;;;;;;3.00;0.80;;;;;;;;;;5073556;28;20462;-70
2022/04/03 10:58:24;;;;;;;4.93;0.98;;;;;;;;;;5082855;28;20434;-71
2022/04/03 11:00:50;;;;;;;2.75;0.80;;;;;;;;;;5096468;27;20095;-71
2022/04/03 11:03:20;;;;;;;3.30;0.80;;;;;;;;;;5122738;27;20047;-70
2022/04/03 11:05:47;;;;;;;2.38;0.80;;;;;;;;;;5091407;28;20541;-70
2022/04/03 11:08:12;;;;;;;3.28;0.80;;;;;;;;;;5102236;28;20142;-70
2022/04/03 11:10:57;;;;;;;3.20;0.70;;;;;;;;;;5111121;27;20123;-71
2022/04/03 11:13:23;;;;;;;2.35;0.80;;;;;;;;;;5105547;27;20518;-70
2022/04/03 11:15:49;;;;;;;4.72;0.93;;;;;;;;;;5119059;27;20104;-70
2022/04/03 11:18:27;;;;;;;3.10;0.80;;;;;;;;;;5122217;27;20043;-71
2022/04/03 11:21:08;;;;;;;2.65;0.88;;;;;;;;;;5119485;27;20087;-70
2022/04/03 11:23:36;;;;;;;1.65;0.70;;;;;;;;;;5121451;27;20130;-71
2022/04/03 11:26:02;;;;;;;4.03;1.10;;;;;;;;;;5122860;27;20069;-70
2022/04/03 11:28:29;;;;;;;2.85;0.60;;;;;;;;;;5125114;27;20464;-70
2022/04/03 11:30:55;;;;;;;2.15;0.68;;;;;;;;;;5122839;27;20236;-71
2022/04/03 11:33:22;;;;;;;2.33;0.63;;;;;;;;;;5107989;27;20181;-70
2022/04/03 11:35:48;;;;;;;2.45;0.63;;;;;;;;;;5122243;27;20042;-70
2022/04/03 11:38:15;;;;;;;2.13;0.60;;;;;;;;;;5124697;27;20138;-70
2022/04/03 11:40:46;;;;;;;2.65;0.90;;;;;;;;;;5123032;27;20046;-70
2022/04/03 11:43:16;;;;;;;1.65;0.60;;;;;;;;;;5125169;27;20326;-70
2022/04/03 11:45:54;;;;;;;2.97;0.77;;;;;;;;;;5123216;27;20047;-70
2022/04/03 11:48:21;;;;;;;1.75;0.80;;;;;;;;;;5107988;27;20443;-71
2022/04/03 11:50:49;;;;;;;1.58;0.60;;;;;;;;;;5090100;28;20036;-70
2022/04/03 11:53:18;;;;;;;2.15;0.75;;;;;;;;;;5084320;28;20079;-70
2022/04/03 11:55:43;;;;;;;2.45;0.80;;;;;;;;;;5106696;27;20113;-70
2022/04/03 11:58:10;;;;;;;3.08;0.80;;;;;;;;;;5124783;27;20149;-70
2022/04/03 12:00:44;;;;;;;1.17;0.65;;;;;;;;;;5108370;27;20043;-70
2022/04/03 12:03:09;;;;;;;2.13;0.63;;;;;;;;;;5082853;28;20063;-70
2022/04/03 12:05:36;;;;;;;2.45;0.60;;;;;;;;;;5105504;27;20106;-71
2022/04/03 12:08:03;;;;;;;1.48;0.60;;;;;;;;;;5124413;27;20035;-70
2022/04/03 12:10:32;;;;;;;2.03;0.57;;;;;;;;;;5121620;27;20038;-71
2022/04/03 12:12:58;;;;;;;2.28;0.60;;;;;;;;;;5106397;27;20050;-71
2022/04/03 12:15:27;;;;;;;2.13;0.80;;;;;;;;;;5113756;27;20053;-70
2022/04/03 12:17:57;;;;;;;1.85;0.73;;;;;;;;;;5103307;27;20129;-70
2022/04/03 12:20:23;;;;;;;2.22;0.57;;;;;;;;;;5108195;27;20035;-70
2022/04/03 12:22:50;;;;;;;3.05;0.60;;;;;;;;;;5103478;27;20203;-71
2022/04/03 12:25:16;;;;;;;1.88;0.60;;;;;;;;;;5078414;28;20170;-70
2022/04/03 12:27:42;;;;;;;2.85;0.65;;;;;;;;;;5062725;28;20510;-70
2022/04/03 12:30:09;;;;;;;3.78;0.80;;;;;;;;;;5075213;27;20347;-70
2022/04/03 12:32:36;;;;;;;1.02;0.60;;;;;;;;;;5120553;27;20070;-70
2022/04/03 12:35:05;;;;;;;2.67;0.80;;;;;;;;;;5112841;27;20553;-70
2022/04/03 12:37:35;;;;;;;2.53;0.65;;;;;;;;;;5099270;28;20031;-70
2022/04/03 12:40:06;;;;;;;2.30;0.50;;;;;;;;;;5105265;27;20514;-70
2022/04/03 12:42:39;;;;;;;2.40;0.60;;;;;;;;;;5119158;27;20034;-70
2022/04/03 12:45:09;;;;;;;4.73;0.70;;;;;;;;;;5107992;27;20602;-70
2022/04/03 12:47:39;;;;;;;2.10;0.55;;;;;;;;;;5079529;28;20119;-70
2022/04/03 12:50:05;;;;;;;1.58;0.50;;;;;;;;;;5082658;28;20040;-70
2022/04/03 12:52:40;;;;;;;1.88;0.60;;;;;;;;;;5079162;28;20320;-70
2022/04/03 12:55:08;;;;;;;1.95;0.60;;;;;;;;;;5087524;27;20042;-71
2022/04/03 13:00:19;;;;;;;1.20;0.50;;;;;;;;;;5118797;27;20441;-71
2022/04/03 13:02:46;;;;;;;1.83;0.50;;;;;;;;;;5119513;27;20046;-71
2022/04/03 13:05:16;;;;;;;1.77;0.68;;;;;;;;;;5118048;27;20488;-71
2022/04/03 13:07:42;;;;;;;1.55;0.40;;;;;;;;;;5119778;27;20296;-70
2022/04/03 13:10:15;;;;;;;1.15;0.50;;;;;;;;;;5099135;27;20046;-71
2022/04/03 13:12:42;;;;;;;2.45;0.75;;;;;;;;;;5118754;27;20365;-71
2022/04/03 13:15:09;;;;;;;1.30;0.60;;;;;;;;;;5099999;27;20043;-70
2022/04/03 13:17:35;;;;;;;2.17;0.45;;;;;;;;;;5119310;27;20164;-71
2022/04/03 13:20:01;;;;;;;2.88;0.60;;;;;;;;;;5100125;27;20106;-71
2022/04/03 13:22:27;;;;;;;2.00;0.52;;;;;;;;;;5118583;27;20038;-71
2022/04/03 13:24:54;;;;;;;1.77;0.50;;;;;;;;;;5117144;27;20567;-71
2022/04/03 13:27:20;;;;;;;1.42;0.50;;;;;;;;;;5101423;28;20515;-71
2022/04/03 13:29:46;;;;;;;1.42;0.40;;;;;;;;;;5117455;28;20080;-71
2022/04/03 13:32:12;;;;;;;1.08;0.40;;;;;;;;;;5118971;28;20511;-70
2022/04/03 13:34:38;;;;;;;1.50;0.50;;;;;;;;;;5116714;28;20048;-71
2022/04/03 13:37:04;;;;;;;2.38;0.52;;;;;;;;;;5101807;28;20130;-71
2022/04/03 13:39:31;;;;;;;1.35;0.60;;;;;;;;;;5099690;28;20043;-71
2022/04/03 13:42:02;;;;;;;2.28;0.40;;;;;;;;;;5119001;28;20484;-70
2022/04/03 13:44:28;;;;;;;2.53;0.60;;;;;;;;;;5116248;27;20046;-71
2022/04/03 13:46:56;;;;;;;1.70;0.40;;;;;;;;;;5078579;28;20075;-71
2022/04/03 13:49:24;;;;;;;1.17;0.50;;;;;;;;;;5078976;28;20040;-71
2022/04/03 13:51:50;;;;;;;2.33;0.70;;;;;;;;;;5118858;28;20034;-71
2022/04/03 13:54:17;;;;;;;1.38;0.57;;;;;;;;;;5118251;28;20054;-71
2022/04/03 13:56:43;;;;;;;1.60;0.50;;;;;;;;;;5094246;28;20112;-71
2022/04/03 13:59:09;;;;;;;2.83;0.70;;;;;;;;;;5061587;28;20207;-71
2022/04/03 14:01:38;;;;;;;1.88;0.50;;;;;;;;;;5116906;28;20078;-71
2022/04/03 14:04:05;;;;;;;2.33;0.68;;;;;;;;;;5101896;28;20361;-71
2022/04/03 14:06:31;;;;;;;1.20;0.50;;;;;;;;;;5116828;28;20069;-72
2022/04/03 14:08:57;;;;;;;1.92;0.70;;;;;;;;;;5101684;28;20047;-72
2022/04/03 14:11:23;;;;;;;1.08;0.45;;;;;;;;;;5084259;28;20047;-73
2022/04/03 14:13:49;;;;;;;3.28;0.68;;;;;;;;;;5078622;28;20036;-71
2022/04/03 14:16:15;;;;;;;1.90;0.50;;;;;;;;;;5109157;28;20539;-72
2022/04/03 14:18:41;;;;;;;1.10;0.45;;;;;;;;;;5118720;28;20050;-71
2022/04/03 14:21:08;;;;;;;1.55;0.63;;;;;;;;;;5116391;28;20302;-72
2022/04/03 14:23:36;;;;;;;1.25;0.50;;;;;;;;;;5101556;28;20051;-71
2022/04/03 14:26:03;;;;;;;1.77;0.60;;;;;;;;;;5083078;28;20556;-72
2022/04/03 14:28:30;;;;;;;1.15;0.50;;;;;;;;;;5081825;28;20067;-71
2022/04/03 14:30:56;;;;;;;2.22;0.60;;;;;;;;;;5108574;27;20172;-73
2022/04/03 14:33:22;;;;;;;1.60;0.50;;;;;;;;;;5122912;27;20482;-71
2022/04/03 14:35:48;;;;;;;2.75;0.60;;;;;;;;;;5108007;27;20044;-71
2022/04/03 14:38:14;;;;;;;2.00;0.57;;;;;;;;;;5101998;28;20439;-71
2022/04/03 14:40:40;;;;;;;1.48;0.50;;;;;;;;;;5095244;27;20035;-71
2022/04/03 14:43:06;;;;;;;0.52;0.35;;;;;;;;;;5122622;27;20050;-71
2022/04/03 14:45:32;;;;;;;0.93;0.60;;;;;;;;;;5107311;27;20527;-71